sensor_id;sensor_type;location;lat;lon;timestamp;P1;durP1;ratioP1;P2;durP2;ratioP2
23060;SDS011;11698;47.690;9.132;2023-04-06T00:02:01;6.65;;;4.00;;
23060;SDS011;11698;47.690;9.132;2023-04-06T00:04:27;6.85;;;4.32;;
23060;SDS011;11698;47.690;9.132;2023-04-06T00:06:53;5.20;;;3.90;;
23060;SDS011;11698;47.690;9.132;2023-04-06T00:09:20;6.15;;;3.83;;
23060;SDS011;11698;47.690;9.132;2023-04-06T00:11:46;5.63;;;3.90;;
23060;SDS011;11698;47.690;9.132;2023-04-06T00:14:12;6.20;;;4.38;;
23060;SDS011;11698;47.690;9.132;2023-04-06T00:16:38;6.25;;;3.88;;
23060;SDS011;11698;47.690;9.132;2023-04-06T00:19:04;7.05;;;3.95;;
23060;SDS011;11698;47.690;9.132;2023-04-06T00:21:30;5.95;;;3.78;;
23060;SDS011;11698;47.690;9.132;2023-04-06T00:23:57;5.40;;;3.80;;
23060;SDS011;11698;47.690;9.132;2023-04-06T00:26:23;6.53;;;4.18;;
23060;SDS011;11698;47.690;9.132;2023-04-06T00:28:49;7.32;;;4.20;;
23060;SDS011;11698;47.690;9.132;2023-04-06T00:31:17;5.70;;;4.13;;
23060;SDS011;11698;47.690;9.132;2023-04-06T00:33:43;7.43;;;4.00;;
23060;SDS011;11698;47.690;9.132;2023-04-06T00:36:09;7.95;;;4.57;;
23060;SDS011;11698;47.690;9.132;2023-04-06T00:38:35;6.97;;;4.17;;
23060;SDS011;11698;47.690;9.132;2023-04-06T00:41:02;6.83;;;4.40;;
23060;SDS011;11698;47.690;9.132;2023-04-06T00:43:29;5.20;;;3.83;;
23060;SDS011;11698;47.690;9.132;2023-04-06T00:45:55;5.80;;;3.75;;
23060;SDS011;11698;47.690;9.132;2023-04-06T00:48:21;7.80;;;4.53;;
23060;SDS011;11698;47.690;9.132;2023-04-06T00:50:47;7.85;;;4.47;;
23060;SDS011;11698;47.690;9.132;2023-04-06T00:53:13;5.95;;;4.10;;
23060;SDS011;11698;47.690;9.132;2023-04-06T00:55:39;7.63;;;4.65;;
23060;SDS011;11698;47.690;9.132;2023-04-06T00:58:05;6.75;;;4.40;;
23060;SDS011;11698;47.690;9.132;2023-04-06T01:00:32;6.63;;;4.32;;
23060;SDS011;11698;47.690;9.132;2023-04-06T01:02:58;6.60;;;4.38;;
23060;SDS011;11698;47.690;9.132;2023-04-06T01:05:24;6.97;;;4.85;;
23060;SDS011;11698;47.690;9.132;2023-04-06T01:07:50;6.07;;;3.88;;
23060;SDS011;11698;47.690;9.132;2023-04-06T01:10:26;6.45;;;4.55;;
23060;SDS011;11698;47.690;9.132;2023-04-06T01:12:52;5.35;;;4.18;;
23060;SDS011;11698;47.690;9.132;2023-04-06T01:15:19;10.25;;;4.72;;
23060;SDS011;11698;47.690;9.132;2023-04-06T01:17:45;6.22;;;4.50;;
23060;SDS011;11698;47.690;9.132;2023-04-06T01:20:11;6.75;;;3.92;;
23060;SDS011;11698;47.690;9.132;2023-04-06T01:22:38;4.88;;;4.00;;
23060;SDS011;11698;47.690;9.132;2023-04-06T01:25:04;8.43;;;4.20;;
23060;SDS011;11698;47.690;9.132;2023-04-06T01:27:30;6.50;;;3.83;;
23060;SDS011;11698;47.690;9.132;2023-04-06T01:29:56;8.00;;;4.73;;
23060;SDS011;11698;47.690;9.132;2023-04-06T01:32:22;9.90;;;4.78;;
23060;SDS011;11698;47.690;9.132;2023-04-06T01:34:49;5.75;;;4.53;;
23060;SDS011;11698;47.690;9.132;2023-04-06T01:37:15;7.15;;;4.68;;
23060;SDS011;11698;47.690;9.132;2023-04-06T01:39:41;7.30;;;4.95;;
23060;SDS011;11698;47.690;9.132;2023-04-06T01:42:07;9.18;;;4.97;;
23060;SDS011;11698;47.690;9.132;2023-04-06T01:44:33;9.68;;;4.97;;
23060;SDS011;11698;47.690;9.132;2023-04-06T01:47:00;6.40;;;4.25;;
23060;SDS011;11698;47.690;9.132;2023-04-06T01:49:26;7.78;;;4.40;;
23060;SDS011;11698;47.690;9.132;2023-04-06T01:51:52;9.50;;;4.97;;
23060;SDS011;11698;47.690;9.132;2023-04-06T01:54:19;7.20;;;4.82;;
23060;SDS011;11698;47.690;9.132;2023-04-06T01:56:45;6.80;;;4.45;;
23060;SDS011;11698;47.690;9.132;2023-04-06T01:59:11;9.60;;;4.90;;
23060;SDS011;11698;47.690;9.132;2023-04-06T02:01:37;7.60;;;4.90;;
23060;SDS011;11698;47.690;9.132;2023-04-06T02:04:03;5.90;;;4.63;;
23060;SDS011;11698;47.690;9.132;2023-04-06T02:06:29;6.90;;;4.90;;
23060;SDS011;11698;47.690;9.132;2023-04-06T02:08:56;8.35;;;4.70;;
23060;SDS011;11698;47.690;9.132;2023-04-06T02:11:22;7.15;;;5.20;;
23060;SDS011;11698;47.690;9.132;2023-04-06T02:13:48;6.47;;;4.40;;
23060;SDS011;11698;47.690;9.132;2023-04-06T02:16:14;6.97;;;4.70;;
23060;SDS011;11698;47.690;9.132;2023-04-06T02:18:40;6.78;;;5.07;;
23060;SDS011;11698;47.690;9.132;2023-04-06T02:21:06;8.52;;;4.63;;
23060;SDS011;11698;47.690;9.132;2023-04-06T02:23:32;7.40;;;4.78;;
23060;SDS011;11698;47.690;9.132;2023-04-06T02:25:58;7.07;;;4.63;;
23060;SDS011;11698;47.690;9.132;2023-04-06T02:28:25;6.90;;;4.93;;
23060;SDS011;11698;47.690;9.132;2023-04-06T02:30:51;8.52;;;4.85;;
23060;SDS011;11698;47.690;9.132;2023-04-06T02:33:17;6.15;;;4.65;;
23060;SDS011;11698;47.690;9.132;2023-04-06T02:35:43;8.43;;;4.93;;
23060;SDS011;11698;47.690;9.132;2023-04-06T02:38:10;7.30;;;5.03;;
23060;SDS011;11698;47.690;9.132;2023-04-06T02:40:36;8.13;;;4.80;;
23060;SDS011;11698;47.690;9.132;2023-04-06T02:43:02;7.35;;;4.82;;
23060;SDS011;11698;47.690;9.132;2023-04-06T02:45:28;7.28;;;4.50;;
23060;SDS011;11698;47.690;9.132;2023-04-06T02:47:54;6.93;;;4.82;;
23060;SDS011;11698;47.690;9.132;2023-04-06T02:50:20;8.23;;;5.27;;
23060;SDS011;11698;47.690;9.132;2023-04-06T02:52:46;8.27;;;4.97;;
23060;SDS011;11698;47.690;9.132;2023-04-06T02:55:12;8.23;;;5.20;;
23060;SDS011;11698;47.690;9.132;2023-04-06T02:57:38;8.73;;;5.10;;
23060;SDS011;11698;47.690;9.132;2023-04-06T03:00:04;6.95;;;4.75;;
23060;SDS011;11698;47.690;9.132;2023-04-06T03:02:31;8.27;;;5.30;;
23060;SDS011;11698;47.690;9.132;2023-04-06T03:04:57;7.05;;;4.68;;
23060;SDS011;11698;47.690;9.132;2023-04-06T03:07:23;6.70;;;4.60;;
23060;SDS011;11698;47.690;9.132;2023-04-06T03:09:49;8.17;;;5.17;;
23060;SDS011;11698;47.690;9.132;2023-04-06T03:12:15;8.68;;;5.30;;
23060;SDS011;11698;47.690;9.132;2023-04-06T03:14:41;8.55;;;5.00;;
23060;SDS011;11698;47.690;9.132;2023-04-06T03:17:07;11.05;;;5.70;;
23060;SDS011;11698;47.690;9.132;2023-04-06T03:19:33;7.93;;;5.15;;
23060;SDS011;11698;47.690;9.132;2023-04-06T03:21:59;7.13;;;5.32;;
23060;SDS011;11698;47.690;9.132;2023-04-06T03:24:26;9.18;;;5.38;;
23060;SDS011;11698;47.690;9.132;2023-04-06T03:26:52;7.05;;;5.32;;
23060;SDS011;11698;47.690;9.132;2023-04-06T03:29:18;7.13;;;4.68;;
23060;SDS011;11698;47.690;9.132;2023-04-06T03:31:44;9.13;;;4.60;;
23060;SDS011;11698;47.690;9.132;2023-04-06T03:34:10;9.13;;;5.30;;
23060;SDS011;11698;47.690;9.132;2023-04-06T03:36:36;7.93;;;5.53;;
23060;SDS011;11698;47.690;9.132;2023-04-06T03:39:02;8.27;;;5.60;;
23060;SDS011;11698;47.690;9.132;2023-04-06T03:41:28;7.82;;;4.97;;
23060;SDS011;11698;47.690;9.132;2023-04-06T03:43:54;8.52;;;5.80;;
23060;SDS011;11698;47.690;9.132;2023-04-06T03:46:20;9.75;;;5.30;;
23060;SDS011;11698;47.690;9.132;2023-04-06T03:48:48;8.38;;;5.05;;
23060;SDS011;11698;47.690;9.132;2023-04-06T03:51:14;7.27;;;4.93;;
23060;SDS011;11698;47.690;9.132;2023-04-06T03:53:40;8.50;;;5.45;;
23060;SDS011;11698;47.690;9.132;2023-04-06T03:56:06;7.00;;;5.10;;
23060;SDS011;11698;47.690;9.132;2023-04-06T03:58:32;9.20;;;5.70;;
23060;SDS011;11698;47.690;9.132;2023-04-06T04:00:58;6.72;;;5.03;;
23060;SDS011;11698;47.690;9.132;2023-04-06T04:03:24;9.18;;;5.68;;
23060;SDS011;11698;47.690;9.132;2023-04-06T04:05:52;9.37;;;5.37;;
23060;SDS011;11698;47.690;9.132;2023-04-06T04:08:18;10.85;;;6.13;;
23060;SDS011;11698;47.690;9.132;2023-04-06T04:10:44;8.10;;;5.38;;
23060;SDS011;11698;47.690;9.132;2023-04-06T04:13:10;8.02;;;5.15;;
23060;SDS011;11698;47.690;9.132;2023-04-06T04:15:36;8.98;;;5.05;;
23060;SDS011;11698;47.690;9.132;2023-04-06T04:18:02;9.57;;;5.50;;
23060;SDS011;11698;47.690;9.132;2023-04-06T04:20:28;9.03;;;6.03;;
23060;SDS011;11698;47.690;9.132;2023-04-06T04:22:54;8.77;;;5.40;;
23060;SDS011;11698;47.690;9.132;2023-04-06T04:25:20;9.70;;;5.18;;
23060;SDS011;11698;47.690;9.132;2023-04-06T04:27:46;8.45;;;5.63;;
23060;SDS011;11698;47.690;9.132;2023-04-06T04:30:12;10.35;;;5.47;;
23060;SDS011;11698;47.690;9.132;2023-04-06T04:32:38;6.75;;;5.20;;
23060;SDS011;11698;47.690;9.132;2023-04-06T04:35:05;8.30;;;5.53;;
23060;SDS011;11698;47.690;9.132;2023-04-06T04:37:31;8.40;;;5.95;;
23060;SDS011;11698;47.690;9.132;2023-04-06T04:39:57;8.95;;;5.50;;
23060;SDS011;11698;47.690;9.132;2023-04-06T04:42:23;10.60;;;6.03;;
23060;SDS011;11698;47.690;9.132;2023-04-06T04:44:49;8.90;;;5.88;;
23060;SDS011;11698;47.690;9.132;2023-04-06T04:47:15;10.00;;;5.95;;
23060;SDS011;11698;47.690;9.132;2023-04-06T04:49:41;8.90;;;6.15;;
23060;SDS011;11698;47.690;9.132;2023-04-06T04:52:07;8.88;;;5.80;;
23060;SDS011;11698;47.690;9.132;2023-04-06T04:54:33;9.90;;;5.85;;
23060;SDS011;11698;47.690;9.132;2023-04-06T04:56:59;11.27;;;6.03;;
23060;SDS011;11698;47.690;9.132;2023-04-06T04:59:25;11.40;;;6.68;;
23060;SDS011;11698;47.690;9.132;2023-04-06T05:01:51;10.27;;;6.13;;
23060;SDS011;11698;47.690;9.132;2023-04-06T05:04:17;11.75;;;6.35;;
23060;SDS011;11698;47.690;9.132;2023-04-06T05:06:43;10.52;;;6.20;;
23060;SDS011;11698;47.690;9.132;2023-04-06T05:09:09;10.53;;;6.40;;
23060;SDS011;11698;47.690;9.132;2023-04-06T05:11:35;9.77;;;6.72;;
23060;SDS011;11698;47.690;9.132;2023-04-06T05:14:01;11.15;;;6.45;;
23060;SDS011;11698;47.690;9.132;2023-04-06T05:16:27;10.52;;;6.63;;
23060;SDS011;11698;47.690;9.132;2023-04-06T05:18:53;11.63;;;6.78;;
23060;SDS011;11698;47.690;9.132;2023-04-06T05:21:21;9.18;;;6.35;;
23060;SDS011;11698;47.690;9.132;2023-04-06T05:23:47;10.87;;;7.17;;
23060;SDS011;11698;47.690;9.132;2023-04-06T05:26:13;10.70;;;6.10;;
23060;SDS011;11698;47.690;9.132;2023-04-06T05:28:39;10.43;;;6.40;;
23060;SDS011;11698;47.690;9.132;2023-04-06T05:31:07;11.10;;;6.28;;
23060;SDS011;11698;47.690;9.132;2023-04-06T05:33:33;11.50;;;5.90;;
23060;SDS011;11698;47.690;9.132;2023-04-06T05:35:59;8.73;;;6.20;;
23060;SDS011;11698;47.690;9.132;2023-04-06T05:38:26;11.55;;;6.80;;
23060;SDS011;11698;47.690;9.132;2023-04-06T05:40:52;10.43;;;6.57;;
23060;SDS011;11698;47.690;9.132;2023-04-06T05:43:18;11.25;;;6.70;;
23060;SDS011;11698;47.690;9.132;2023-04-06T05:45:44;10.23;;;5.75;;
23060;SDS011;11698;47.690;9.132;2023-04-06T05:48:10;10.75;;;6.38;;
23060;SDS011;11698;47.690;9.132;2023-04-06T05:50:36;10.63;;;6.72;;
23060;SDS011;11698;47.690;9.132;2023-04-06T05:53:02;10.20;;;6.15;;
23060;SDS011;11698;47.690;9.132;2023-04-06T05:55:28;9.77;;;6.32;;
23060;SDS011;11698;47.690;9.132;2023-04-06T05:57:54;11.33;;;6.37;;
23060;SDS011;11698;47.690;9.132;2023-04-06T06:00:20;10.93;;;6.40;;
23060;SDS011;11698;47.690;9.132;2023-04-06T06:02:46;8.27;;;6.20;;
23060;SDS011;11698;47.690;9.132;2023-04-06T06:05:12;11.45;;;6.85;;
23060;SDS011;11698;47.690;9.132;2023-04-06T06:07:38;10.23;;;6.53;;
23060;SDS011;11698;47.690;9.132;2023-04-06T06:10:04;10.30;;;6.35;;
23060;SDS011;11698;47.690;9.132;2023-04-06T06:12:31;9.05;;;6.15;;
23060;SDS011;11698;47.690;9.132;2023-04-06T06:14:57;9.13;;;5.93;;
23060;SDS011;11698;47.690;9.132;2023-04-06T06:17:23;9.90;;;6.45;;
23060;SDS011;11698;47.690;9.132;2023-04-06T06:19:49;11.98;;;6.55;;
23060;SDS011;11698;47.690;9.132;2023-04-06T06:22:15;9.73;;;6.97;;
23060;SDS011;11698;47.690;9.132;2023-04-06T06:24:41;10.52;;;6.72;;
23060;SDS011;11698;47.690;9.132;2023-04-06T06:27:07;9.30;;;6.40;;
23060;SDS011;11698;47.690;9.132;2023-04-06T06:29:33;12.27;;;7.38;;
23060;SDS011;11698;47.690;9.132;2023-04-06T06:31:59;12.30;;;7.40;;
23060;SDS011;11698;47.690;9.132;2023-04-06T06:34:25;15.05;;;7.38;;
23060;SDS011;11698;47.690;9.132;2023-04-06T06:36:51;13.93;;;7.50;;
23060;SDS011;11698;47.690;9.132;2023-04-06T06:39:19;12.57;;;7.47;;
23060;SDS011;11698;47.690;9.132;2023-04-06T06:41:45;10.48;;;7.25;;
23060;SDS011;11698;47.690;9.132;2023-04-06T06:44:11;10.50;;;6.95;;
23060;SDS011;11698;47.690;9.132;2023-04-06T06:46:37;9.90;;;6.78;;
23060;SDS011;11698;47.690;9.132;2023-04-06T06:49:03;10.87;;;7.00;;
23060;SDS011;11698;47.690;9.132;2023-04-06T06:51:30;9.60;;;6.90;;
23060;SDS011;11698;47.690;9.132;2023-04-06T06:53:56;9.20;;;6.38;;
23060;SDS011;11698;47.690;9.132;2023-04-06T06:56:22;13.45;;;7.70;;
23060;SDS011;11698;47.690;9.132;2023-04-06T06:58:48;8.90;;;6.43;;
23060;SDS011;11698;47.690;9.132;2023-04-06T07:01:14;12.68;;;7.22;;
23060;SDS011;11698;47.690;9.132;2023-04-06T07:03:40;14.52;;;7.43;;
23060;SDS011;11698;47.690;9.132;2023-04-06T07:06:06;11.88;;;7.15;;
23060;SDS011;11698;47.690;9.132;2023-04-06T07:08:32;7.72;;;5.75;;
23060;SDS011;11698;47.690;9.132;2023-04-06T07:10:58;11.43;;;7.35;;
23060;SDS011;11698;47.690;9.132;2023-04-06T07:13:24;11.10;;;7.23;;
23060;SDS011;11698;47.690;9.132;2023-04-06T07:15:52;13.50;;;7.25;;
23060;SDS011;11698;47.690;9.132;2023-04-06T07:18:18;10.52;;;7.18;;
23060;SDS011;11698;47.690;9.132;2023-04-06T07:20:44;10.93;;;7.25;;
23060;SDS011;11698;47.690;9.132;2023-04-06T07:23:11;10.40;;;7.22;;
23060;SDS011;11698;47.690;9.132;2023-04-06T07:25:37;9.40;;;6.95;;
23060;SDS011;11698;47.690;9.132;2023-04-06T07:28:03;10.98;;;7.07;;
23060;SDS011;11698;47.690;9.132;2023-04-06T07:30:29;10.50;;;7.32;;
23060;SDS011;11698;47.690;9.132;2023-04-06T07:32:55;10.68;;;7.63;;
23060;SDS011;11698;47.690;9.132;2023-04-06T07:35:25;10.15;;;7.13;;
23060;SDS011;11698;47.690;9.132;2023-04-06T07:37:52;10.33;;;7.00;;
23060;SDS011;11698;47.690;9.132;2023-04-06T07:40:18;12.50;;;7.80;;
23060;SDS011;11698;47.690;9.132;2023-04-06T07:42:44;11.73;;;7.70;;
23060;SDS011;11698;47.690;9.132;2023-04-06T07:45:11;9.50;;;7.20;;
23060;SDS011;11698;47.690;9.132;2023-04-06T07:47:37;9.60;;;6.80;;
23060;SDS011;11698;47.690;9.132;2023-04-06T07:50:03;10.55;;;7.10;;
23060;SDS011;11698;47.690;9.132;2023-04-06T07:52:29;10.13;;;6.90;;
23060;SDS011;11698;47.690;9.132;2023-04-06T07:54:57;12.68;;;7.25;;
23060;SDS011;11698;47.690;9.132;2023-04-06T07:57:23;10.60;;;7.13;;
23060;SDS011;11698;47.690;9.132;2023-04-06T07:59:49;13.23;;;7.07;;
23060;SDS011;11698;47.690;9.132;2023-04-06T08:02:15;9.52;;;7.07;;
23060;SDS011;11698;47.690;9.132;2023-04-06T08:04:41;10.13;;;6.80;;
23060;SDS011;11698;47.690;9.132;2023-04-06T08:07:07;12.07;;;6.93;;
23060;SDS011;11698;47.690;9.132;2023-04-06T08:09:33;9.80;;;6.40;;
23060;SDS011;11698;47.690;9.132;2023-04-06T08:11:59;9.50;;;6.72;;
23060;SDS011;11698;47.690;9.132;2023-04-06T08:14:26;9.73;;;6.20;;
23060;SDS011;11698;47.690;9.132;2023-04-06T08:16:52;8.57;;;5.65;;
23060;SDS011;11698;47.690;9.132;2023-04-06T08:19:18;10.00;;;6.35;;
23060;SDS011;11698;47.690;9.132;2023-04-06T08:21:44;10.05;;;6.32;;
23060;SDS011;11698;47.690;9.132;2023-04-06T08:24:11;10.85;;;6.50;;
23060;SDS011;11698;47.690;9.132;2023-04-06T08:26:37;9.90;;;6.40;;
23060;SDS011;11698;47.690;9.132;2023-04-06T08:29:03;7.18;;;4.63;;
23060;SDS011;11698;47.690;9.132;2023-04-06T08:31:32;9.15;;;6.05;;
23060;SDS011;11698;47.690;9.132;2023-04-06T08:33:58;10.25;;;6.53;;
23060;SDS011;11698;47.690;9.132;2023-04-06T08:36:24;9.20;;;6.37;;
23060;SDS011;11698;47.690;9.132;2023-04-06T08:38:50;9.65;;;6.13;;
23060;SDS011;11698;47.690;9.132;2023-04-06T08:41:17;10.93;;;5.85;;
23060;SDS011;11698;47.690;9.132;2023-04-06T08:43:50;10.35;;;6.35;;
23060;SDS011;11698;47.690;9.132;2023-04-06T08:46:18;9.93;;;6.13;;
23060;SDS011;11698;47.690;9.132;2023-04-06T08:48:45;10.50;;;5.95;;
23060;SDS011;11698;47.690;9.132;2023-04-06T08:51:11;10.27;;;5.90;;
23060;SDS011;11698;47.690;9.132;2023-04-06T08:53:38;9.30;;;5.97;;
23060;SDS011;11698;47.690;9.132;2023-04-06T08:56:04;9.32;;;6.35;;
23060;SDS011;11698;47.690;9.132;2023-04-06T08:58:32;8.57;;;5.72;;
23060;SDS011;11698;47.690;9.132;2023-04-06T09:00:59;9.98;;;5.88;;
23060;SDS011;11698;47.690;9.132;2023-04-06T09:03:25;7.67;;;5.70;;
23060;SDS011;11698;47.690;9.132;2023-04-06T09:05:51;8.30;;;6.13;;
23060;SDS011;11698;47.690;9.132;2023-04-06T09:08:17;8.32;;;6.10;;
23060;SDS011;11698;47.690;9.132;2023-04-06T09:10:44;9.05;;;6.28;;
23060;SDS011;11698;47.690;9.132;2023-04-06T09:13:10;8.55;;;6.28;;
23060;SDS011;11698;47.690;9.132;2023-04-06T09:15:37;10.40;;;6.47;;
23060;SDS011;11698;47.690;9.132;2023-04-06T09:18:03;10.75;;;7.13;;
23060;SDS011;11698;47.690;9.132;2023-04-06T09:20:30;12.20;;;6.35;;
23060;SDS011;11698;47.690;9.132;2023-04-06T09:22:56;9.60;;;6.15;;
23060;SDS011;11698;47.690;9.132;2023-04-06T09:25:23;9.80;;;6.38;;
23060;SDS011;11698;47.690;9.132;2023-04-06T09:28:03;8.50;;;6.40;;
23060;SDS011;11698;47.690;9.132;2023-04-06T09:30:32;9.68;;;6.05;;
23060;SDS011;11698;47.690;9.132;2023-04-06T09:32:58;8.88;;;6.07;;
23060;SDS011;11698;47.690;9.132;2023-04-06T09:35:24;11.77;;;5.73;;
23060;SDS011;11698;47.690;9.132;2023-04-06T09:37:55;10.07;;;6.10;;
23060;SDS011;11698;47.690;9.132;2023-04-06T09:40:21;8.20;;;5.78;;
23060;SDS011;11698;47.690;9.132;2023-04-06T09:42:48;8.07;;;6.03;;
23060;SDS011;11698;47.690;9.132;2023-04-06T09:45:18;7.43;;;5.63;;
23060;SDS011;11698;47.690;9.132;2023-04-06T09:47:45;7.32;;;5.20;;
23060;SDS011;11698;47.690;9.132;2023-04-06T09:50:12;9.15;;;5.60;;
23060;SDS011;11698;47.690;9.132;2023-04-06T09:52:43;7.25;;;5.00;;
23060;SDS011;11698;47.690;9.132;2023-04-06T09:55:13;7.17;;;5.10;;
23060;SDS011;11698;47.690;9.132;2023-04-06T10:00:11;7.40;;;5.33;;
23060;SDS011;11698;47.690;9.132;2023-04-06T10:02:51;7.40;;;5.40;;
23060;SDS011;11698;47.690;9.132;2023-04-06T10:05:23;7.07;;;4.47;;
23060;SDS011;11698;47.690;9.132;2023-04-06T10:07:53;7.15;;;5.03;;
23060;SDS011;11698;47.690;9.132;2023-04-06T10:10:20;9.50;;;5.95;;
23060;SDS011;11698;47.690;9.132;2023-04-06T10:12:46;8.47;;;5.50;;
23060;SDS011;11698;47.690;9.132;2023-04-06T10:15:13;6.15;;;4.72;;
23060;SDS011;11698;47.690;9.132;2023-04-06T10:17:40;8.57;;;5.55;;
23060;SDS011;11698;47.690;9.132;2023-04-06T10:20:10;9.30;;;5.25;;
23060;SDS011;11698;47.690;9.132;2023-04-06T10:22:43;9.20;;;5.25;;
23060;SDS011;11698;47.690;9.132;2023-04-06T10:25:10;7.57;;;5.32;;
23060;SDS011;11698;47.690;9.132;2023-04-06T10:27:36;7.68;;;4.32;;
23060;SDS011;11698;47.690;9.132;2023-04-06T10:30:05;7.90;;;5.03;;
23060;SDS011;11698;47.690;9.132;2023-04-06T10:32:33;7.32;;;4.80;;
23060;SDS011;11698;47.690;9.132;2023-04-06T10:35:08;7.88;;;5.25;;
23060;SDS011;11698;47.690;9.132;2023-04-06T10:37:49;6.72;;;5.30;;
23060;SDS011;11698;47.690;9.132;2023-04-06T10:40:22;7.50;;;4.97;;
23060;SDS011;11698;47.690;9.132;2023-04-06T10:42:49;7.40;;;4.80;;
23060;SDS011;11698;47.690;9.132;2023-04-06T10:45:19;7.17;;;5.07;;
23060;SDS011;11698;47.690;9.132;2023-04-06T10:47:45;5.05;;;2.63;;
23060;SDS011;11698;47.690;9.132;2023-04-06T10:50:13;6.87;;;4.60;;
23060;SDS011;11698;47.690;9.132;2023-04-06T10:52:40;7.35;;;4.90;;
23060;SDS011;11698;47.690;9.132;2023-04-06T10:55:07;7.15;;;4.95;;
23060;SDS011;11698;47.690;9.132;2023-04-06T10:57:35;7.25;;;5.15;;
23060;SDS011;11698;47.690;9.132;2023-04-06T11:00:03;7.45;;;5.10;;
23060;SDS011;11698;47.690;9.132;2023-04-06T11:02:29;5.67;;;3.90;;
23060;SDS011;11698;47.690;9.132;2023-04-06T11:04:56;7.10;;;4.70;;
23060;SDS011;11698;47.690;9.132;2023-04-06T11:07:26;7.47;;;4.70;;
23060;SDS011;11698;47.690;9.132;2023-04-06T11:09:52;7.15;;;4.40;;
23060;SDS011;11698;47.690;9.132;2023-04-06T11:12:25;6.72;;;4.70;;
23060;SDS011;11698;47.690;9.132;2023-04-06T11:14:55;6.00;;;4.33;;
23060;SDS011;11698;47.690;9.132;2023-04-06T11:17:26;5.85;;;3.38;;
23060;SDS011;11698;47.690;9.132;2023-04-06T11:19:52;5.47;;;3.42;;
23060;SDS011;11698;47.690;9.132;2023-04-06T11:22:18;6.82;;;4.75;;
23060;SDS011;11698;47.690;9.132;2023-04-06T11:24:44;6.93;;;4.47;;
23060;SDS011;11698;47.690;9.132;2023-04-06T11:27:10;7.18;;;4.50;;
23060;SDS011;11698;47.690;9.132;2023-04-06T11:29:36;7.82;;;4.53;;
23060;SDS011;11698;47.690;9.132;2023-04-06T11:32:06;5.77;;;3.97;;
23060;SDS011;11698;47.690;9.132;2023-04-06T11:34:38;6.60;;;4.10;;
23060;SDS011;11698;47.690;9.132;2023-04-06T11:37:09;6.60;;;4.23;;
23060;SDS011;11698;47.690;9.132;2023-04-06T11:39:54;6.72;;;4.45;;
23060;SDS011;11698;47.690;9.132;2023-04-06T11:42:25;5.28;;;4.00;;
23060;SDS011;11698;47.690;9.132;2023-04-06T11:44:53;4.38;;;3.20;;
23060;SDS011;11698;47.690;9.132;2023-04-06T11:47:19;4.60;;;3.10;;
23060;SDS011;11698;47.690;9.132;2023-04-06T11:49:47;3.83;;;2.80;;
23060;SDS011;11698;47.690;9.132;2023-04-06T11:52:23;5.93;;;3.63;;
23060;SDS011;11698;47.690;9.132;2023-04-06T11:54:50;4.78;;;3.50;;
23060;SDS011;11698;47.690;9.132;2023-04-06T11:57:16;6.72;;;3.78;;
23060;SDS011;11698;47.690;9.132;2023-04-06T11:59:42;5.25;;;3.58;;
23060;SDS011;11698;47.690;9.132;2023-04-06T12:02:08;4.90;;;3.53;;
23060;SDS011;11698;47.690;9.132;2023-04-06T12:04:34;4.93;;;3.50;;
23060;SDS011;11698;47.690;9.132;2023-04-06T12:07:01;4.55;;;3.60;;
23060;SDS011;11698;47.690;9.132;2023-04-06T12:09:27;4.18;;;2.70;;
23060;SDS011;11698;47.690;9.132;2023-04-06T12:11:53;4.43;;;3.33;;
23060;SDS011;11698;47.690;9.132;2023-04-06T12:14:19;4.97;;;3.45;;
23060;SDS011;11698;47.690;9.132;2023-04-06T12:16:45;5.43;;;3.43;;
23060;SDS011;11698;47.690;9.132;2023-04-06T12:19:11;4.38;;;3.20;;
23060;SDS011;11698;47.690;9.132;2023-04-06T12:21:37;4.28;;;3.22;;
23060;SDS011;11698;47.690;9.132;2023-04-06T12:24:04;4.68;;;3.47;;
23060;SDS011;11698;47.690;9.132;2023-04-06T12:26:30;4.05;;;3.10;;
23060;SDS011;11698;47.690;9.132;2023-04-06T12:28:56;3.70;;;2.80;;
23060;SDS011;11698;47.690;9.132;2023-04-06T12:31:24;5.05;;;3.30;;
23060;SDS011;11698;47.690;9.132;2023-04-06T12:33:51;4.72;;;3.30;;
23060;SDS011;11698;47.690;9.132;2023-04-06T12:36:18;5.18;;;3.58;;
23060;SDS011;11698;47.690;9.132;2023-04-06T12:38:46;4.43;;;3.70;;
23060;SDS011;11698;47.690;9.132;2023-04-06T12:41:12;4.33;;;3.07;;
23060;SDS011;11698;47.690;9.132;2023-04-06T12:43:41;4.70;;;3.42;;
23060;SDS011;11698;47.690;9.132;2023-04-06T12:46:07;3.97;;;3.57;;
23060;SDS011;11698;47.690;9.132;2023-04-06T12:48:33;4.55;;;3.80;;
23060;SDS011;11698;47.690;9.132;2023-04-06T12:51:04;3.35;;;2.58;;
23060;SDS011;11698;47.690;9.132;2023-04-06T12:53:30;3.72;;;2.92;;
23060;SDS011;11698;47.690;9.132;2023-04-06T12:55:56;3.90;;;3.40;;
23060;SDS011;11698;47.690;9.132;2023-04-06T12:58:23;3.88;;;3.13;;
23060;SDS011;11698;47.690;9.132;2023-04-06T13:00:52;3.13;;;2.57;;
23060;SDS011;11698;47.690;9.132;2023-04-06T13:03:18;4.83;;;2.80;;
23060;SDS011;11698;47.690;9.132;2023-04-06T13:05:48;3.72;;;2.80;;
23060;SDS011;11698;47.690;9.132;2023-04-06T13:08:14;4.90;;;3.03;;
23060;SDS011;11698;47.690;9.132;2023-04-06T13:10:47;3.53;;;3.00;;
23060;SDS011;11698;47.690;9.132;2023-04-06T13:13:16;4.63;;;3.28;;
23060;SDS011;11698;47.690;9.132;2023-04-06T13:15:43;4.57;;;3.05;;
23060;SDS011;11698;47.690;9.132;2023-04-06T13:18:10;4.27;;;3.37;;
23060;SDS011;11698;47.690;9.132;2023-04-06T13:20:36;4.82;;;3.40;;
23060;SDS011;11698;47.690;9.132;2023-04-06T13:23:02;4.50;;;3.80;;
23060;SDS011;11698;47.690;9.132;2023-04-06T13:25:29;6.03;;;2.80;;
23060;SDS011;11698;47.690;9.132;2023-04-06T13:27:55;4.57;;;2.90;;
23060;SDS011;11698;47.690;9.132;2023-04-06T13:30:21;4.50;;;3.60;;
23060;SDS011;11698;47.690;9.132;2023-04-06T13:32:47;5.20;;;3.50;;
23060;SDS011;11698;47.690;9.132;2023-04-06T13:35:13;4.93;;;3.13;;
23060;SDS011;11698;47.690;9.132;2023-04-06T13:37:39;4.18;;;3.60;;
23060;SDS011;11698;47.690;9.132;2023-04-06T13:40:05;4.43;;;3.23;;
23060;SDS011;11698;47.690;9.132;2023-04-06T13:42:32;5.85;;;3.67;;
23060;SDS011;11698;47.690;9.132;2023-04-06T13:44:59;4.60;;;3.42;;
23060;SDS011;11698;47.690;9.132;2023-04-06T13:47:25;5.43;;;3.97;;
23060;SDS011;11698;47.690;9.132;2023-04-06T13:49:52;5.15;;;3.55;;
23060;SDS011;11698;47.690;9.132;2023-04-06T13:52:18;5.83;;;3.80;;
23060;SDS011;11698;47.690;9.132;2023-04-06T13:54:45;5.20;;;3.40;;
23060;SDS011;11698;47.690;9.132;2023-04-06T13:57:11;5.43;;;3.33;;
23060;SDS011;11698;47.690;9.132;2023-04-06T13:59:38;4.53;;;3.20;;
23060;SDS011;11698;47.690;9.132;2023-04-06T14:02:05;5.70;;;3.50;;
23060;SDS011;11698;47.690;9.132;2023-04-06T14:04:31;5.40;;;3.67;;
23060;SDS011;11698;47.690;9.132;2023-04-06T14:06:58;6.63;;;3.85;;
23060;SDS011;11698;47.690;9.132;2023-04-06T14:09:25;5.13;;;3.57;;
23060;SDS011;11698;47.690;9.132;2023-04-06T14:11:51;5.13;;;3.60;;
23060;SDS011;11698;47.690;9.132;2023-04-06T14:14:17;4.45;;;3.33;;
23060;SDS011;11698;47.690;9.132;2023-04-06T14:16:43;5.80;;;3.60;;
23060;SDS011;11698;47.690;9.132;2023-04-06T14:19:10;5.13;;;3.72;;
23060;SDS011;11698;47.690;9.132;2023-04-06T14:21:39;4.80;;;3.60;;
23060;SDS011;11698;47.690;9.132;2023-04-06T14:24:06;5.40;;;3.60;;
23060;SDS011;11698;47.690;9.132;2023-04-06T14:26:33;5.03;;;3.67;;
23060;SDS011;11698;47.690;9.132;2023-04-06T14:28:59;4.78;;;3.45;;
23060;SDS011;11698;47.690;9.132;2023-04-06T14:31:26;5.60;;;3.55;;
23060;SDS011;11698;47.690;9.132;2023-04-06T14:33:52;5.87;;;3.70;;
23060;SDS011;11698;47.690;9.132;2023-04-06T14:36:18;6.30;;;3.70;;
23060;SDS011;11698;47.690;9.132;2023-04-06T14:38:44;5.50;;;3.63;;
23060;SDS011;11698;47.690;9.132;2023-04-06T14:41:15;3.72;;;3.17;;
23060;SDS011;11698;47.690;9.132;2023-04-06T14:43:42;5.75;;;3.38;;
23060;SDS011;11698;47.690;9.132;2023-04-06T14:46:08;5.50;;;3.38;;